• Join FlightAware (Why Join?)
  • Login
  • US Flag 
10:04AM EDT


 

Airport Tracker/Info


-or-


 

Live Flight TrackerFlight Track Log ✈ ASQ4229 ✈ 20-Apr-2013 ✈ KCHS - KIAH

Flight Track Log - Related Links

Times and Time Zones

All times are in EDT time to prevent confusion due to time zone crossing. See the ASQ4229 flight status page for this flight to view local times or setup timezone preferences in your user account.

Time Position Orientation Groundspeed Altitude Reporting Facility
EDT Latitude Longitude Course Direction KTS MPH feet Rate Location/Type
06:49AM 32.8703 -80.1869 276° West 215 247 4,500  Level Jacksonville Center
06:50AM 32.9333 -80.3073 270° West  Level FlightAware Approximate
06:50AM 32.8822 -80.2533 282° West 226 260 6,600  Level Jacksonville Center
06:51AM 32.9333 -80.4145 270° West  Level FlightAware Approximate
06:51AM 32.9006 -80.3319 286° West 237 273 8,700  Level Jacksonville Center
06:52AM 32.9338 -80.5217 276° West  Level FlightAware Approximate
06:52AM 32.8936 -80.4089 264° West 237 273 10,400  Level Jacksonville Center
06:53AM 32.9435 -80.6283 276° West  Level FlightAware Approximate
06:53AM 32.8850 -80.5031 264° West 256 295 11,000  Level Jacksonville Center
06:54AM 32.9532 -80.7349 276° West  Level FlightAware Approximate
06:54AM 32.8850 -80.6069 270° West 292 336 12,600  Level Jacksonville Center
06:55AM 32.8617 -80.7039 254° West 305 351 13,900 1,140 Climbing Jacksonville Center
06:56AM 32.8361 -80.8033 253° West 310 357 15,000 1,260 Climbing Jacksonville Center
06:57AM 32.8169 -80.9053 257° West 320 368 16,500 1,200 Climbing Jacksonville Center
06:58AM 32.8058 -81.0069 263° West 320 368 17,400 780 Climbing Jacksonville Center
06:59AM 32.7992 -81.1156 266° West 320 368 18,100 900 Climbing Jacksonville Center
07:00AM 32.7900 -81.2197 264° West 320 368 19,300 1,200 Climbing Jacksonville Center
07:01AM 32.7811 -81.3211 264° West 325 374 20,600 1,200 Climbing Jacksonville Center
07:03AM 32.7567 -81.5542 263° West 317 365 23,100 1,080 Climbing Atlanta Center
07:04AM 32.7483 -81.6481 264° West 323 372 24,200 1,200 Climbing Atlanta Center
07:05AM 32.7397 -81.7472 264° West 323 372 25,600 1,320 Climbing Atlanta Center
07:06AM 32.7289 -81.8486 263° West 312 359 26,900 1,140 Climbing Atlanta Center
07:07AM 32.7203 -81.9453 264° West 312 359 27,900 540 Climbing Atlanta Center
07:08AM 32.7114 -82.0492 264° West 312 359 28,000  Climbing Atlanta Center
07:09AM 32.6986 -82.1603 262° West 330 380 28,000  Level Atlanta Center
07:10AM 32.6878 -82.2767 264° West 343 395 28,000 60 Level Atlanta Center
07:11AM 32.6750 -82.3978 263° West 354 407 28,200 840 Climbing Atlanta Center
07:12AM 32.6639 -82.5067 263° West 360 414 29,700 1,560 Climbing Atlanta Center
07:13AM 32.6525 -82.6178 263° West 348 400 31,400 1,620 Climbing Atlanta Center
07:14AM 32.6433 -82.7217 264° West 336 387 33,000 1,620 Climbing Atlanta Center
07:15AM 32.6339 -82.8131 263° West 316 364 34,700 1,320 Climbing Atlanta Center
07:16AM 32.6222 -82.9019 261° West 294 338 35,700 600 Climbing Atlanta Center
07:17AM 32.6147 -83.0031 265° West 288 331 36,000 120 Climbing Atlanta Center
07:18AM 32.6050 -83.1019 263° West 293 337 36,000  Level Atlanta Center
07:19AM 32.5933 -83.2106 263° West 313 360 36,000  Level Atlanta Center
07:20AM 32.5836 -83.3167 264° West 327 376 36,000  Level Atlanta Center
07:21AM 32.5694 -83.4275 261° West 342 394 36,000  Level Atlanta Center
07:22AM 32.5556 -83.5411 262° West 347 399 36,000  Level Atlanta Center
07:23AM 32.5453 -83.6569 264° West 353 406 36,000  Level Atlanta Center
07:24AM 32.5333 -83.7703 263° West 353 406 36,000  Level Atlanta Center
07:25AM 32.5189 -83.8786 261° West 353 406 36,000  Level Atlanta Center
07:26AM 32.5083 -83.9919 264° West 353 406 36,000  Level Atlanta Center
07:27AM 32.4939 -84.1028 261° West 353 406 36,000  Level Atlanta Center
07:28AM 32.4811 -84.2136 262° West 353 406 36,000  Level Atlanta Center
07:29AM 32.4706 -84.3219 263° West 348 400 36,000  Level Atlanta Center
07:30AM 32.4556 -84.4328 261° West 348 400 36,000  Level Atlanta Center
07:31AM 32.4447 -84.5408 263° West 348 400 36,000  Level Atlanta Center
07:32AM 32.4319 -84.6492 262° West 343 395 36,000  Level Atlanta Center
07:33AM 32.4167 -84.7597 261° West 343 395 36,000  Level Atlanta Center
07:34AM 32.4036 -84.8506 260° West 336 387 36,000  Level Atlanta Center
07:35AM 32.3944 -84.9589 264° West 330 380 36,000  Level Atlanta Center
07:36AM 32.3831 -85.0669 263° West 330 380 36,000  Level Atlanta Center
07:37AM 32.3656 -85.1750 259° West 330 380 36,000  Level Atlanta Center
07:38AM 32.3519 -85.2781 261° West 330 380 36,000  Level Atlanta Center
07:39AM 32.3403 -85.3886 263° West 330 380 36,000  Level Atlanta Center
07:40AM 32.3286 -85.4939 263° West 330 380 36,000  Level Atlanta Center
07:41AM 32.3150 -85.5994 261° West 330 380 36,000  Level Atlanta Center
07:42AM 32.3031 -85.7050 262° West 330 380 36,000  Level Atlanta Center
07:43AM 32.2869 -85.8250 261° West 338 389 36,000  Level Atlanta Center
07:44AM 32.2706 -85.9303 260° West 338 389 36,000  Level Atlanta Center
07:45AM 32.2564 -86.0356 261° West 333 383 36,000  Level Atlanta Center
07:46AM 32.2422 -86.1408 261° West 333 383 36,000  Level Atlanta Center
07:47AM 32.2386 -86.2292 267° West 328 377 36,000  Level Atlanta Center
07:48AM 32.2117 -86.3389 254° West 321 369 36,000  Level Atlanta Center
07:49AM 32.1686 -86.4067 233° Southwest 300 345 36,000  Level Atlanta Center
07:50AM 32.1128 -86.4861 230° Southwest 307 353 36,000  Level Atlanta Center
07:51AM 32.0569 -86.5631 229° Southwest 313 360 36,000  Level Atlanta Center
07:52AM 31.9989 -86.6397 228° Southwest 318 366 36,000  Level Atlanta Center
07:53AM 31.9325 -86.7233 227° Southwest 325 374 36,000  Level Atlanta Center
07:54AM 31.8764 -86.8050 231° Southwest 325 374 36,000  Level Atlanta Center
07:55AM 31.8183 -86.8836 229° Southwest 325 374 36,000  Level Atlanta Center
07:56AM 31.7642 -86.9603 230° Southwest 325 374 36,000  Level Atlanta Center
07:57AM 31.7061 -87.0364 228° Southwest 319 367 36,000  Level Atlanta Center
07:58AM 31.6606 -87.1056 232° Southwest 319 367 36,000  Level Atlanta Center
08:00AM 31.5331 -87.2728 228° Southwest 312 359 36,000  Level Houston Center
08:01AM 31.4761 -87.3492 229° Southwest 311 358 36,000  Level Houston Center
08:03AM 31.4192 -87.4275 230° Southwest 313 360 36,000  Level Houston Center
08:04AM 31.3644 -87.5075 231° Southwest 314 361 36,000  Level Houston Center
08:05AM 31.3069 -87.5844 229° Southwest 314 361 36,000  Level Houston Center
08:06AM 31.2494 -87.6606 229° Southwest 314 361 36,000  Level Houston Center
08:07AM 31.1953 -87.7286 227° Southwest 313 360 36,000  Level Houston Center
08:08AM 31.1247 -87.8225 229° Southwest 320 368 36,000  Level Houston Center
08:09AM 31.0700 -87.8986 230° Southwest 311 358 36,000  Level Houston Center
08:10AM 31.0125 -87.9758 229° Southwest 315 362 36,000  Level Houston Center
08:11AM 30.9544 -88.0531 229° Southwest 317 365 36,000  Level Houston Center
08:12AM 30.8956 -88.1294 228° Southwest 317 365 36,000  Level Houston Center
08:13AM 30.8375 -88.2083 229° Southwest 320 368 36,000  Level Houston Center
08:14AM 30.7781 -88.2867 229° Southwest 321 369 36,000  Level Houston Center
08:15AM 30.7222 -88.3653 230° Southwest 318 366 36,000  Level Houston Center
08:16AM 30.6906 -88.4569 248° West 318 366 36,000  Level Houston Center
08:17AM 30.6572 -88.5528 248° West 319 367 36,000  Level Houston Center
08:18AM 30.6250 -88.6475 248° West 316 364 36,000  Level Houston Center
08:19AM 30.5922 -88.7425 248° West 317 365 36,000  Level Houston Center
08:20AM 30.5531 -88.8581 249° West 319 367 36,000  Level Houston Center
08:21AM 30.5203 -88.9539 248° West 320 368 36,000  Level Houston Center
08:22AM 30.4853 -89.0522 248° West 323 372 36,000  Level Houston Center
08:23AM 30.4525 -89.1486 248° West 323 372 36,000  Level Houston Center
08:24AM 30.4189 -89.2467 248° West 326 375 36,000  Level Houston Center
08:25AM 30.3858 -89.3433 248° West 325 374 36,000  Level Houston Center
08:26AM 30.3517 -89.4411 248° West 327 376 36,000  Level Houston Center
08:27AM 30.3172 -89.5378 248° West 326 375 36,000  Level Houston Center
08:28AM 30.2828 -89.6369 248° West 328 377 36,000  Level Houston Center
08:29AM 30.2447 -89.7364 246° West 331 381 36,000  Level Houston Center
08:30AM 30.2100 -89.8392 249° West 336 387 36,000  Level Houston Center
08:31AM 30.1756 -89.9386 248° West 331 381 36,000  Level Houston Center
08:32AM 30.1406 -90.0381 248° West 333 383 36,000  Level Houston Center
08:33AM 30.1053 -90.1369 248° West 334 384 36,000  Level Houston Center
08:34AM 30.0694 -90.2364 247° West 337 388 36,000  Level Houston Center
08:35AM 30.0336 -90.3347 247° West 335 386 36,000  Level Houston Center
08:36AM 29.9975 -90.4353 247° West 338 389 36,000  Level Houston Center
08:37AM 29.9542 -90.5556 247° West 339 390 36,000  Level Houston Center
08:38AM 29.9181 -90.6564 248° West 340 391 36,000  Level Houston Center
08:39AM 29.8800 -90.7592 247° West 348 400 36,000  Level Houston Center
08:40AM 29.8431 -90.8611 247° West 345 397 36,000  Level Houston Center
08:41AM 29.8053 -90.9636 247° West 348 400 36,000  Level Houston Center
08:42AM 29.7675 -91.0661 247° West 350 403 36,000  Level Houston Center
08:43AM 29.7300 -91.1700 247° West 350 403 36,000  Level Houston Center
08:44AM 29.7156 -91.2808 261° West 357 411 36,000  Level Houston Center
08:45AM 29.7017 -91.3919 262° West 350 403 36,000  Level Houston Center
08:46AM 29.6872 -91.5053 262° West 356 410 36,000  Level Houston Center
08:47AM 29.6717 -91.6414 263° West 359 413 36,000  Level Houston Center
08:48AM 29.6586 -91.7344 261° West 355 409 36,000  Level Houston Center
08:49AM 29.6439 -91.8667 263° West 349 402 36,000  Level Houston Center
08:50AM 29.6294 -91.9769 261° West 349 402 36,000  Level Houston Center
08:51AM 29.6144 -92.0875 261° West 346 398 36,000  Level Houston Center
08:52AM 29.6014 -92.1950 262° West 342 394 36,000  Level Houston Center
08:53AM 29.5886 -92.3033 262° West 345 397 36,000  Level Houston Center
08:54AM 29.5731 -92.4131 261° West 344 396 36,000  Level Houston Center
08:55AM 29.5589 -92.5197 261° West 343 395 36,000  Level Houston Center
08:56AM 29.5442 -92.6275 261° West 342 394 36,000  Level Houston Center
08:57AM 29.5314 -92.7342 262° West 339 390 36,000  Level Houston Center
08:59AM 29.5169 -92.8408 261° West 338 389 36,000  Level Houston Center
09:00AM 29.4997 -92.9689 261° West 339 390 36,000  Level Houston Center
09:01AM 29.4856 -93.0742 261° West 335 386 36,000 -540 Level Houston Center
09:02AM 29.4883 -93.1819 272° West 336 387 35,000 -1,500 Descending Houston Center
09:03AM 29.4931 -93.2858 273° West 346 398 33,000 -2,100 Descending Houston Center
09:04AM 29.4983 -93.4056 273° West 367 422 30,800 -2,220 Descending Houston Center
09:05AM 29.5053 -93.5325 274° West 390 449 28,500 -2,400 Descending Houston Center
09:06AM 29.5100 -93.6603 272° West 398 458 25,900 -2,880 Descending Houston Center
09:07AM 29.5181 -93.8128 274° West 399 459 22,700 -2,940 Descending Houston Center
09:08AM 29.5214 -93.9408 272° West 402 463 20,000 -2,460 Descending Houston Center
09:09AM 29.5256 -94.0650 272° West 397 457 17,800 -2,340 Descending Houston Center
09:10AM 29.5272 -94.1706 271° West 365 420 15,600 -2,340 Descending Houston Center
09:11AM 29.5319 -94.2781 273° West 342 394 13,400 -1,320 Descending Houston Center
09:12AM 29.5511 -94.3861 282° West 319 367 13,000 -600 Descending Houston Center
09:13AM 29.5947 -94.4886 296° West 319 367 12,200 -1,260 Descending Houston Center
09:14AM 29.6331 -94.5775 296° West 303 349 10,400 -1,680 Descending Houston Center
09:15AM 29.6631 -94.6508 295° West 271 312 9,000 -1,560 Descending Houston Center
09:16AM 29.7353 -94.6800 341° North 278 320 7,400 -1,020 Descending Houston Center
09:17AM 29.8092 -94.7044 344° North 268 308 7,000 -240 Descending Houston Center
09:18AM 29.8817 -94.7361 339° North 287 330 7,000  Level Houston Center
09:19AM 29.9486 -94.7783 331° Northwest 276 318 7,000 -60 Level Houston Center
09:20AM 29.9867 -94.8700 296° West 278 320 6,900 -480 Descending Houston Center
09:21AM 29.9942 -94.9464 276° West 272 313 6,100 -900 Descending Houston Center
09:22AM 29.9922 -95.0383 269° West 280 322 5,200 -840 Descending Houston Center
09:22AM 29.9936 -95.0425 291° West 278 320 5,100 -1,620 Descending Houston Center
09:23AM 29.9919 -95.1253 269° West 266 306 3,600 -1,620 Descending Houston Center
09:23AM 29.9933 -95.1292 292° West 274 315 3,500 -1,200 Descending Houston Center
09:24AM 29.9922 -95.1975 269° West 220 253 2,400 -1,380 Descending Houston Center
09:24AM 29.9944 -95.2117 280° West 215 247 2,100 -1,140 Descending Houston Center